Time;durP1;ratioP1;P1;durP2;ratioP2;P2;SDS_P1;SDS_P2;PMS_P1;PMS_P2;Temp;Humidity;BMP_temperature;BMP_pressure;BME280_temperature;BME280_humidity;BME280_pressure;Samples;Min_cycle;Max_cycle;Signal;HPM_P1;HPM_P2
2021/08/20 00:02:07;;;;;;;10.90;10.20;;;16.50;99.90;;;;;;5024212;28;21028;-61
2021/08/20 00:04:35;;;;;;;10.73;10.03;;;16.50;99.90;;;;;;5021748;28;20818;-61
2021/08/20 00:07:02;;;;;;;10.60;9.90;;;16.60;99.90;;;;;;5022478;28;20997;-62
2021/08/20 00:09:29;;;;;;;9.67;9.13;;;16.60;99.90;;;;;;5021802;28;20485;-61
2021/08/20 00:11:56;;;;;;;10.90;10.20;;;16.60;99.90;;;;;;5021471;28;20462;-62
2021/08/20 00:14:23;;;;;;;10.30;9.70;;;16.50;99.90;;;;;;5023754;28;20454;-62
2021/08/20 00:16:49;;;;;;;11.13;10.23;;;16.50;99.90;;;;;;5025244;28;20445;-61
2021/08/20 00:19:16;;;;;;;10.90;10.10;;;16.40;99.90;;;;;;5023015;28;21044;-63
2021/08/20 00:21:44;;;;;;;11.60;10.90;;;16.30;99.90;;;;;;5021166;28;20575;-61
2021/08/20 00:24:14;;;;;;;12.10;11.30;;;16.30;99.90;;;;;;5022279;28;20504;-62
2021/08/20 00:26:41;;;;;;;11.90;11.10;;;16.20;99.90;;;;;;5024606;28;20448;-62
2021/08/20 00:29:08;;;;;;;11.50;10.70;;;16.10;99.90;;;;;;5022962;28;20948;-63
2021/08/20 00:31:35;;;;;;;10.70;10.10;;;16.10;99.90;;;;;;5022960;28;20466;-60
2021/08/20 00:34:01;;;;;;;13.50;10.67;;;16.00;99.90;;;;;;5021202;28;20970;-62
2021/08/20 00:36:28;;;;;;;11.50;10.50;;;16.00;99.90;;;;;;5024142;28;20445;-62
2021/08/20 00:38:56;;;;;;;10.83;10.13;;;15.90;99.90;;;;;;5024681;28;20449;-62
2021/08/20 00:41:23;;;;;;;11.73;10.93;;;15.90;99.90;;;;;;5021641;28;20473;-62
2021/08/20 00:43:50;;;;;;;10.97;10.20;;;15.90;99.90;;;;;;5021171;28;20797;-61
2021/08/20 00:46:16;;;;;;;11.37;10.57;;;16.00;99.90;;;;;;5022095;28;20965;-62
2021/08/20 00:48:43;;;;;;;11.20;10.40;;;15.90;99.90;;;;;;5020703;28;21013;-62
2021/08/20 00:51:16;;;;;;;10.87;10.13;;;15.90;99.90;;;;;;5021276;28;20482;-61
2021/08/20 00:53:44;;;;;;;10.10;9.50;;;15.90;99.90;;;;;;5024259;28;20441;-62
2021/08/20 00:56:12;;;;;;;11.40;10.50;;;15.90;99.90;;;;;;5023164;28;20445;-62
2021/08/20 00:58:39;;;;;;;11.30;10.50;;;15.90;99.90;;;;;;5020917;28;20446;-61
2021/08/20 01:01:06;;;;;;;10.97;9.90;;;15.90;99.90;;;;;;5021807;28;20819;-62
2021/08/20 01:03:34;;;;;;;11.57;10.50;;;16.00;99.90;;;;;;5013398;28;20449;-63
2021/08/20 01:06:03;;;;;;;11.03;10.23;;;16.00;99.90;;;;;;5020589;28;20442;-62
2021/08/20 01:08:31;;;;;;;11.20;10.40;;;16.00;99.90;;;;;;5023436;28;20476;-60
2021/08/20 01:10:58;;;;;;;11.03;10.27;;;16.10;99.90;;;;;;5023714;28;20869;-61
2021/08/20 01:13:31;;;;;;;10.20;9.60;;;16.10;99.90;;;;;;5020822;28;21005;-62
2021/08/20 01:15:57;;;;;;;10.10;9.50;;;16.10;99.90;;;;;;5026180;28;20448;-60
2021/08/20 01:18:26;;;;;;;9.03;8.53;;;16.10;99.90;;;;;;5021033;28;20446;-61
2021/08/20 01:20:54;;;;;;;10.33;9.73;;;16.10;99.90;;;;;;5020414;28;20450;-61
2021/08/20 01:23:22;;;;;;;10.47;9.87;;;16.10;99.90;;;;;;5022975;28;20453;-62
2021/08/20 01:25:50;;;;;;;9.90;9.30;;;16.10;99.90;;;;;;5004706;28;20454;-62
2021/08/20 01:28:17;;;;;;;11.73;10.53;;;16.10;99.90;;;;;;5010377;28;20496;-61
2021/08/20 01:30:44;;;;;;;12.20;11.40;;;16.10;99.90;;;;;;5012614;28;20457;-62
2021/08/20 01:33:11;;;;;;;10.63;9.83;;;16.10;99.90;;;;;;5012244;28;20931;-62
2021/08/20 01:35:38;;;;;;;9.90;9.30;;;16.10;99.90;;;;;;5014774;28;20445;-62
2021/08/20 01:38:05;;;;;;;12.27;11.33;;;16.20;99.90;;;;;;5031925;28;20457;-62
2021/08/20 01:40:31;;;;;;;12.07;11.17;;;16.20;99.90;;;;;;5032128;28;20441;-62
2021/08/20 01:43:00;;;;;;;12.47;11.33;;;16.20;99.90;;;;;;5031786;28;20985;-62
2021/08/20 01:45:26;;;;;;;12.10;11.30;;;16.20;99.90;;;;;;5016748;28;20454;-61
2021/08/20 01:47:53;;;;;;;12.37;11.60;;;16.20;99.90;;;;;;5012041;28;20465;-62
2021/08/20 01:50:20;;;;;;;12.13;11.43;;;16.10;99.90;;;;;;5012102;28;20469;-62
2021/08/20 01:52:46;;;;;;;13.27;12.37;;;16.10;99.90;;;;;;5011614;28;20465;-63
2021/08/20 01:55:13;;;;;;;13.43;12.47;;;16.10;99.90;;;;;;5024575;28;20850;-62
2021/08/20 01:57:41;;;;;;;12.33;11.60;;;16.10;99.90;;;;;;5030050;28;20488;-61
2021/08/20 02:00:11;;;;;;;13.53;12.57;;;16.10;99.90;;;;;;5031774;28;20445;-63
2021/08/20 02:02:38;;;;;;;13.43;12.40;;;16.10;99.90;;;;;;5031324;28;20460;-61
2021/08/20 02:05:06;;;;;;;13.50;12.70;;;16.10;99.90;;;;;;5020038;28;20811;-61
2021/08/20 02:07:36;;;;;;;14.23;13.23;;;16.10;99.90;;;;;;5011992;28;20453;-61
2021/08/20 02:10:04;;;;;;;13.93;13.00;;;16.00;99.90;;;;;;5011888;28;20481;-63
2021/08/20 02:12:31;;;;;;;14.70;13.67;;;16.00;99.90;;;;;;5011653;28;20474;-64
2021/08/20 02:14:57;;;;;;;12.23;11.53;;;16.00;99.90;;;;;;5021734;28;20818;-64
2021/08/20 02:17:25;;;;;;;14.17;12.90;;;16.00;99.90;;;;;;5031457;28;20445;-64
2021/08/20 02:19:52;;;;;;;14.13;13.23;;;15.90;99.90;;;;;;5031367;28;20471;-62
2021/08/20 02:22:19;;;;;;;14.50;13.40;;;15.90;99.90;;;;;;5028546;28;20477;-62
2021/08/20 02:24:46;;;;;;;16.07;14.80;;;15.90;99.90;;;;;;5011777;28;20453;-64
2021/08/20 02:27:13;;;;;;;15.40;14.10;;;15.90;99.90;;;;;;5011577;28;20864;-63
2021/08/20 02:29:39;;;;;;;15.67;14.47;;;15.80;99.90;;;;;;5011437;28;20512;-63
2021/08/20 02:32:07;;;;;;;15.00;13.87;;;15.80;99.90;;;;;;5011076;28;20477;-61
2021/08/20 02:34:35;;;;;;;15.93;14.83;;;15.80;99.90;;;;;;5031445;28;20448;-62
2021/08/20 02:37:01;;;;;;;14.93;13.93;;;15.70;99.90;;;;;;5031205;28;20452;-62
2021/08/20 02:39:28;;;;;;;16.33;15.13;;;15.70;99.90;;;;;;5031319;28;20452;-61
2021/08/20 02:41:55;;;;;;;14.30;13.30;;;15.60;99.90;;;;;;5030941;28;20473;-61
2021/08/20 02:44:22;;;;;;;17.00;15.60;;;15.60;99.90;;;;;;5012499;28;20446;-61
2021/08/20 02:46:48;;;;;;;15.83;14.63;;;15.50;99.90;;;;;;5013044;28;20453;-62
2021/08/20 02:49:15;;;;;;;16.10;14.70;;;15.50;99.90;;;;;;5030471;28;20872;-62
2021/08/20 02:51:43;;;;;;;18.10;16.67;;;15.40;99.90;;;;;;5034861;28;20476;-62
2021/08/20 02:54:16;;;;;;;15.90;14.70;;;15.40;99.90;;;;;;5018352;28;20524;-60
2021/08/20 02:56:42;;;;;;;15.90;14.80;;;15.40;99.90;;;;;;5015522;28;20792;-61
2021/08/20 02:59:09;;;;;;;16.97;15.33;;;15.40;99.90;;;;;;5015429;28;20442;-62
2021/08/20 03:01:36;;;;;;;16.23;14.83;;;15.40;99.90;;;;;;5015048;28;20548;-63
2021/08/20 03:04:02;;;;;;;15.80;14.40;;;15.40;99.90;;;;;;5030398;28;20456;-62
2021/08/20 03:06:29;;;;;;;16.67;15.33;;;15.40;99.90;;;;;;5034987;28;20456;-62
2021/08/20 03:08:58;;;;;;;17.80;16.37;;;15.50;99.90;;;;;;5034887;28;20508;-61
2021/08/20 03:11:24;;;;;;;13.90;12.70;;;15.50;99.90;;;;;;5034642;28;20469;-61
2021/08/20 03:13:51;;;;;;;15.63;14.43;;;15.50;99.90;;;;;;5021074;28;20454;-62
2021/08/20 03:16:18;;;;;;;15.60;14.00;;;15.50;99.90;;;;;;5023272;28;20444;-62
2021/08/20 03:18:44;;;;;;;15.53;14.50;;;15.50;99.90;;;;;;5034805;28;20907;-62
2021/08/20 03:21:11;;;;;;;16.43;15.13;;;15.50;99.90;;;;;;5015579;28;21239;-62
2021/08/20 03:23:38;;;;;;;15.80;14.50;;;15.50;99.90;;;;;;5014876;28;20819;-61
2021/08/20 03:26:06;;;;;;;16.47;14.83;;;15.50;99.90;;;;;;5014823;28;20469;-61
2021/08/20 03:28:33;;;;;;;15.80;14.43;;;15.40;99.90;;;;;;5014811;28;20519;-62
2021/08/20 03:31:00;;;;;;;17.17;15.87;;;15.40;99.90;;;;;;5030856;28;20449;-61
2021/08/20 03:33:26;;;;;;;15.00;13.73;;;15.40;99.90;;;;;;5034496;28;20965;-61
2021/08/20 03:35:53;;;;;;;15.70;14.40;;;15.30;99.90;;;;;;5034568;28;20445;-62
2021/08/20 03:38:20;;;;;;;16.33;15.03;;;15.30;99.90;;;;;;5034261;28;20520;-63
2021/08/20 03:40:48;;;;;;;15.40;14.10;;;15.20;99.90;;;;;;5019275;28;20461;-62
2021/08/20 03:43:17;;;;;;;16.10;14.83;;;15.20;99.90;;;;;;5014296;28;20510;-62
2021/08/20 03:45:45;;;;;;;16.10;14.60;;;15.20;99.90;;;;;;5014488;28;20452;-61
2021/08/20 03:48:12;;;;;;;16.70;15.40;;;15.10;99.90;;;;;;5014468;28;20450;-61
2021/08/20 03:50:38;;;;;;;15.63;14.30;;;15.10;99.90;;;;;;5027310;28;20487;-61
2021/08/20 03:53:05;;;;;;;17.30;16.10;;;15.10;99.90;;;;;;5028878;28;20476;-62
2021/08/20 03:55:32;;;;;;;16.67;15.47;;;15.10;99.90;;;;;;5002554;28;20461;-62
2021/08/20 03:57:59;;;;;;;17.60;15.70;;;15.10;99.90;;;;;;5007397;28;20552;-60
2021/08/20 04:00:27;;;;;;;14.70;13.50;;;15.10;99.90;;;;;;5014250;28;20861;-62
2021/08/20 04:02:54;;;;;;;16.97;15.70;;;15.00;99.90;;;;;;5013793;28;20987;-62
2021/08/20 04:05:22;;;;;;;19.17;17.77;;;15.00;99.90;;;;;;5014076;28;20823;-59
2021/08/20 04:07:49;;;;;;;21.63;15.27;;;15.00;99.90;;;;;;4994650;28;20937;-61
2021/08/20 04:10:16;;;;;;;15.37;14.27;;;14.90;99.90;;;;;;4994349;28;20486;-63
2021/08/20 04:12:42;;;;;;;15.90;14.70;;;14.90;99.90;;;;;;4994229;28;20470;-63
2021/08/20 04:15:10;;;;;;;16.37;14.93;;;14.90;99.90;;;;;;4994304;28;20469;-61
2021/08/20 04:17:38;;;;;;;14.37;13.37;;;14.90;99.90;;;;;;5029392;28;20453;-62
2021/08/20 04:20:06;;;;;;;17.00;15.03;;;14.90;99.90;;;;;;5033716;28;20457;-61
2021/08/20 04:22:32;;;;;;;16.77;15.03;;;14.90;99.90;;;;;;5033251;28;20473;-62
2021/08/20 04:24:59;;;;;;;15.90;14.70;;;14.90;99.90;;;;;;5033607;28;20445;-61
2021/08/20 04:27:26;;;;;;;16.90;15.50;;;14.90;99.90;;;;;;5017146;28;20452;-63
2021/08/20 04:29:52;;;;;;;16.90;15.50;;;14.90;99.90;;;;;;5013588;28;20481;-61
2021/08/20 04:32:19;;;;;;;14.30;13.13;;;15.00;99.90;;;;;;5013338;28;20824;-62
2021/08/20 04:34:50;;;;;;;13.80;12.40;;;15.10;99.90;;;;;;5013411;28;20456;-63
2021/08/20 04:37:22;;;;;;;15.57;14.17;;;15.10;99.90;;;;;;5027221;28;20445;-62
2021/08/20 04:39:49;;;;;;;13.80;12.73;;;15.20;99.90;;;;;;5033330;28;20448;-63
2021/08/20 04:42:16;;;;;;;14.77;13.30;;;15.20;99.90;;;;;;5032834;28;21001;-64
2021/08/20 04:44:43;;;;;;;16.27;14.70;;;15.20;99.90;;;;;;5033190;28;20931;-63
2021/08/20 04:47:10;;;;;;;15.17;13.87;;;15.30;99.90;;;;;;5019766;28;20454;-63
2021/08/20 04:49:36;;;;;;;15.47;14.07;;;15.30;99.90;;;;;;5013204;28;20559;-63
2021/08/20 04:52:05;;;;;;;15.60;14.50;;;15.30;99.90;;;;;;5012797;28;20972;-62
2021/08/20 04:54:32;;;;;;;15.73;14.33;;;15.30;99.90;;;;;;5013420;28;20453;-62
2021/08/20 04:56:59;;;;;;;15.87;14.27;;;15.40;99.90;;;;;;5026830;28;20449;-61
2021/08/20 04:59:25;;;;;;;14.90;13.70;;;15.40;99.90;;;;;;5032928;28;20452;-63
2021/08/20 05:01:52;;;;;;;16.17;13.97;;;15.50;99.90;;;;;;5032621;28;20473;-62
2021/08/20 05:04:19;;;;;;;16.67;14.97;;;15.60;99.90;;;;;;5032969;28;20448;-62
2021/08/20 05:06:45;;;;;;;15.43;14.00;;;15.60;99.90;;;;;;5020348;28;20529;-62
2021/08/20 05:09:13;;;;;;;14.30;13.20;;;15.70;99.90;;;;;;5011483;28;20818;-62
2021/08/20 05:11:40;;;;;;;14.80;13.33;;;15.80;99.90;;;;;;5011465;28;20474;-62
2021/08/20 05:14:07;;;;;;;15.80;14.40;;;15.90;99.90;;;;;;5011711;28;20458;-63
2021/08/20 05:16:34;;;;;;;17.03;15.53;;;16.00;99.90;;;;;;5022613;28;20449;-63
2021/08/20 05:19:00;;;;;;;16.60;15.20;;;16.10;99.90;;;;;;5031098;28;20875;-63
2021/08/20 05:21:27;;;;;;;16.57;14.97;;;16.20;99.90;;;;;;5054881;23;20460;-66
2021/08/20 05:23:54;;;;;;;17.27;15.47;;;16.30;99.90;;;;;;5042987;28;20445;-66
2021/08/20 05:26:21;;;;;;;16.67;15.27;;;16.40;99.90;;;;;;5043526;28;20456;-65
2021/08/20 05:28:48;;;;;;;16.77;15.53;;;16.60;99.90;;;;;;5032348;28;20953;-65
2021/08/20 05:31:15;;;;;;;16.83;15.10;;;16.70;99.90;;;;;;5033065;28;20890;-66
2021/08/20 05:33:41;;;;;;;17.00;15.70;;;16.80;99.90;;;;;;5052058;28;20471;-66
2021/08/20 05:36:09;;;;;;;17.83;16.30;;;16.80;99.90;;;;;;5045641;28;20453;-66
2021/08/20 05:38:36;;;;;;;18.57;17.10;;;17.00;99.90;;;;;;5032351;28;20870;-66
2021/08/20 05:41:02;;;;;;;18.90;17.37;;;17.20;99.90;;;;;;5032075;28;20563;-66
2021/08/20 05:43:32;;;;;;;18.43;17.13;;;17.30;99.90;;;;;;5031949;28;20475;-66
2021/08/20 05:45:59;;;;;;;20.70;19.07;;;17.30;99.90;;;;;;5036707;28;20448;-65
2021/08/20 05:48:26;;;;;;;21.13;19.60;;;17.40;99.90;;;;;;5051931;28;20467;-65
2021/08/20 05:50:53;;;;;;;20.57;18.73;;;17.40;99.90;;;;;;5051804;28;20487;-66
2021/08/20 05:53:20;;;;;;;20.43;19.07;;;17.50;99.90;;;;;;5051720;28;20467;-65
2021/08/20 05:55:46;;;;;;;22.63;20.73;;;17.60;99.90;;;;;;5048598;28;20480;-66
2021/08/20 05:58:13;;;;;;;21.50;19.90;;;17.60;99.90;;;;;;5031952;28;20831;-66
2021/08/20 06:00:41;;;;;;;20.90;19.50;;;17.70;99.90;;;;;;5031861;28;20449;-66
2021/08/20 06:03:08;;;;;;;22.30;20.80;;;17.80;99.90;;;;;;5033763;28;20829;-66
2021/08/20 06:05:35;;;;;;;22.20;20.30;;;17.80;99.90;;;;;;5051658;28;20937;-66
2021/08/20 06:08:02;;;;;;;25.33;23.43;;;18.00;99.90;;;;;;5034763;28;20822;-65
2021/08/20 06:10:31;;;;;;;21.73;20.20;;;18.00;99.90;;;;;;5031705;28;20479;-65
2021/08/20 06:12:58;;;;;;;23.40;21.77;;;18.10;99.90;;;;;;5031822;28;21068;-66
2021/08/20 06:15:24;;;;;;;22.10;20.50;;;18.20;99.90;;;;;;5051418;28;20440;-65
2021/08/20 06:17:53;;;;;;;23.77;22.00;;;18.30;99.90;;;;;;5051499;28;20444;-65
2021/08/20 06:20:19;;;;;;;22.67;20.90;;;18.50;99.90;;;;;;5051348;28;20444;-65
2021/08/20 06:22:46;;;;;;;22.90;21.30;;;18.60;99.90;;;;;;5050956;28;20480;-65
2021/08/20 06:25:13;;;;;;;23.53;22.03;;;18.80;99.90;;;;;;5032280;28;20453;-66
2021/08/20 06:27:39;;;;;;;24.90;23.00;;;18.80;99.90;;;;;;5031457;28;20440;-66
2021/08/20 06:30:07;;;;;;;24.10;22.57;;;18.90;99.90;;;;;;5031396;28;20484;-66
2021/08/20 06:32:33;;;;;;;24.67;23.07;;;19.00;99.90;;;;;;5031247;28;20457;-65
2021/08/20 06:35:01;;;;;;;24.57;23.07;;;18.90;99.90;;;;;;5048064;28;20480;-66
2021/08/20 06:37:28;;;;;;;24.97;23.23;;;19.10;99.90;;;;;;5051070;28;20460;-65
2021/08/20 06:39:55;;;;;;;26.43;24.43;;;19.20;99.90;;;;;;5051418;28;20909;-65
2021/08/20 06:42:22;;;;;;;26.33;24.17;;;19.20;99.90;;;;;;5050927;28;20464;-65
2021/08/20 06:44:49;;;;;;;24.00;22.50;;;19.30;99.90;;;;;;5035902;28;20484;-66
2021/08/20 06:47:16;;;;;;;24.63;22.93;;;19.40;99.90;;;;;;5031224;28;20445;-66
2021/08/20 06:49:43;;;;;;;26.13;24.13;;;19.60;99.90;;;;;;5031136;28;20445;-66
2021/08/20 06:52:11;;;;;;;25.40;23.67;;;19.80;99.90;;;;;;5031081;28;20468;-66
2021/08/20 06:54:38;;;;;;;26.90;25.03;;;19.80;99.90;;;;;;5044326;28;20793;-66
2021/08/20 06:57:05;;;;;;;24.70;23.00;;;19.80;99.90;;;;;;5050754;28;20470;-66
2021/08/20 06:59:32;;;;;;;25.23;23.57;;;19.80;99.90;;;;;;5051231;28;20447;-65
2021/08/20 07:01:59;;;;;;;25.17;23.47;;;19.80;99.90;;;;;;5037747;28;20477;-66
2021/08/20 07:04:26;;;;;;;26.70;24.60;;;19.70;99.90;;;;;;5031257;28;20842;-65
2021/08/20 07:06:55;;;;;;;27.70;25.70;;;19.60;99.90;;;;;;5032338;28;20548;-65
2021/08/20 07:09:24;;;;;;;25.73;23.93;;;19.70;99.90;;;;;;5031010;28;20445;-66
2021/08/20 07:11:50;;;;;;;26.07;24.13;;;19.80;99.90;;;;;;5030633;28;20487;-65
2021/08/20 07:14:17;;;;;;;23.90;22.40;;;20.00;99.90;;;;;;5031117;28;20508;-65
2021/08/20 07:16:44;;;;;;;26.20;24.47;;;20.10;99.90;;;;;;5043657;28;20453;-65
2021/08/20 07:19:11;;;;;;;25.73;24.10;;;20.10;99.90;;;;;;5050694;28;20879;-65
2021/08/20 07:21:38;;;;;;;27.13;25.23;;;20.10;99.90;;;;;;5050629;28;20830;-65
2021/08/20 07:24:05;;;;;;;25.10;23.33;;;20.10;99.90;;;;;;5050739;28;20444;-65
2021/08/20 07:26:33;;;;;;;25.57;23.97;;;20.40;99.90;;;;;;5039717;28;20493;-65
2021/08/20 07:29:00;;;;;;;26.17;24.20;;;20.70;99.90;;;;;;5030887;28;20460;-66
2021/08/20 07:31:27;;;;;;;25.90;24.30;;;20.70;99.90;;;;;;5030619;28;20476;-66
2021/08/20 07:33:54;;;;;;;24.77;22.90;;;20.70;99.90;;;;;;5033984;28;20448;-65
2021/08/20 07:36:21;;;;;;;27.70;25.70;;;20.70;99.90;;;;;;5043442;28;20460;-66
2021/08/20 07:38:48;;;;;;;25.93;24.23;;;20.80;99.90;;;;;;5054294;28;20471;-65
2021/08/20 07:41:14;;;;;;;26.97;25.03;;;20.70;99.90;;;;;;5054231;28;20451;-65
2021/08/20 07:43:42;;;;;;;26.70;24.80;;;20.80;99.90;;;;;;5054391;28;20812;-65
2021/08/20 07:46:09;;;;;;;24.90;23.30;;;20.90;99.90;;;;;;5052531;28;20476;-65
2021/08/20 07:48:36;;;;;;;25.27;23.67;;;21.00;99.90;;;;;;5054056;28;20448;-65
2021/08/20 07:51:03;;;;;;;25.63;23.90;;;21.40;99.90;;;;;;5054008;28;20491;-65
2021/08/20 07:53:29;;;;;;;25.57;23.87;;;21.70;99.90;;;;;;5054089;28;20464;-65
2021/08/20 07:55:57;;;;;;;26.10;24.50;;;21.80;99.90;;;;;;5049236;28;20818;-65
2021/08/20 07:58:24;;;;;;;24.37;23.07;;;21.80;99.90;;;;;;5034255;28;20444;-65
2021/08/20 08:00:52;;;;;;;25.03;23.40;;;21.90;99.90;;;;;;5034175;28;20444;-65
2021/08/20 08:03:19;;;;;;;24.30;22.93;;;21.80;99.90;;;;;;5033880;28;20472;-65
2021/08/20 08:05:46;;;;;;;25.27;23.73;;;22.00;99.90;;;;;;5036641;28;20474;-65
2021/08/20 08:08:12;;;;;;;24.17;22.40;;;22.40;99.90;;;;;;5054119;28;20452;-65
2021/08/20 08:10:41;;;;;;;24.27;22.80;;;22.30;99.90;;;;;;5053842;28;20510;-65
2021/08/20 08:13:08;;;;;;;23.67;22.37;;;22.10;99.90;;;;;;5053545;28;20465;-65
2021/08/20 08:15:34;;;;;;;23.40;22.00;;;22.30;99.90;;;;;;5038695;28;20445;-65
2021/08/20 08:18:02;;;;;;;22.00;20.80;;;22.70;99.90;;;;;;5033989;28;20807;-65
2021/08/20 08:20:29;;;;;;;22.10;20.90;;;22.90;99.90;;;;;;5033815;28;20450;-65
2021/08/20 08:22:56;;;;;;;22.67;21.50;;;23.10;99.90;;;;;;5039786;28;20471;-65
2021/08/20 08:25:23;;;;;;;21.60;20.53;;;23.20;99.90;;;;;;5053535;28;20978;-65
2021/08/20 08:27:53;;;;;;;21.40;20.17;;;23.20;99.90;;;;;;5053469;28;20456;-64
2021/08/20 08:30:20;;;;;;;20.70;19.70;;;23.10;99.90;;;;;;5053461;28;20479;-65
2021/08/20 08:32:46;;;;;;;21.97;20.80;;;23.20;99.90;;;;;;5051449;28;20478;-65
2021/08/20 08:35:15;;;;;;;19.70;18.80;;;23.20;99.90;;;;;;5053562;28;20448;-66
2021/08/20 08:37:41;;;;;;;20.13;19.33;;;23.40;99.90;;;;;;5053365;28;20459;-66
2021/08/20 08:40:09;;;;;;;21.17;20.17;;;23.00;99.90;;;;;;5053605;28;20440;-66
2021/08/20 08:42:37;;;;;;;20.90;20.00;;;22.90;99.90;;;;;;5049407;28;20465;-66
2021/08/20 08:45:05;;;;;;;21.60;20.60;;;22.70;99.90;;;;;;5033390;28;20502;-66
2021/08/20 08:47:34;;;;;;;21.77;20.67;;;22.50;99.90;;;;;;5033360;28;20503;-66
2021/08/20 08:50:03;;;;;;;21.43;20.50;;;22.00;99.90;;;;;;5033177;28;20445;-66
2021/08/20 08:52:32;;;;;;;21.63;20.63;;;22.00;99.90;;;;;;5035144;28;20466;-66
2021/08/20 08:55:02;;;;;;;22.93;21.73;;;22.10;99.90;;;;;;5053097;28;20467;-65
2021/08/20 08:57:28;;;;;;;21.90;20.80;;;22.30;99.90;;;;;;5052943;28;20447;-66
2021/08/20 08:59:57;;;;;;;20.93;19.83;;;22.50;99.90;;;;;;5053054;28;20867;-66
2021/08/20 09:02:25;;;;;;;21.83;20.80;;;22.70;99.90;;;;;;5051104;28;20456;-66
2021/08/20 09:04:59;;;;;;;20.43;19.53;;;22.70;99.90;;;;;;5032997;28;20441;-66
2021/08/20 09:07:28;;;;;;;20.20;19.27;;;22.80;99.90;;;;;;5032839;28;20441;-66
2021/08/20 09:10:17;;;;;;;19.40;18.60;;;22.90;99.90;;;;;;5032958;28;20518;-66
2021/08/20 09:12:53;;;;;;;21.57;20.57;;;23.40;99.90;;;;;;5050092;28;20494;-66
2021/08/20 09:15:21;;;;;;;20.93;20.03;;;23.70;99.90;;;;;;5052724;28;20443;-64
2021/08/20 09:17:48;;;;;;;20.23;19.43;;;23.80;99.90;;;;;;5052239;28;20444;-65
2021/08/20 09:20:22;;;;;;;20.60;19.57;;;23.80;99.90;;;;;;5052710;28;20444;-66
2021/08/20 09:22:50;;;;;;;21.27;20.37;;;23.80;99.90;;;;;;5033565;28;20484;-66
2021/08/20 09:25:34;;;;;;;21.07;19.87;;;24.10;99.90;;;;;;5032596;28;20452;-66
2021/08/20 09:28:18;;;;;;;19.93;19.13;;;23.80;99.90;;;;;;5032400;28;20441;-65
2021/08/20 09:30:59;;;;;;;20.30;19.47;;;23.80;99.90;;;;;;5032958;28;20491;-66
2021/08/20 09:33:27;;;;;;;20.07;19.17;;;23.80;99.90;;;;;;5052396;28;20474;-66
2021/08/20 09:35:59;;;;;;;19.90;19.00;;;23.50;99.90;;;;;;5052206;28;20459;-66
2021/08/20 09:38:26;;;;;;;21.97;20.87;;;22.90;99.90;;;;;;5052253;28;20455;-66
2021/08/20 09:40:58;;;;;;;23.40;22.20;;;22.20;99.90;;;;;;5050062;28;20436;-65
2021/08/20 09:43:28;;;;;;;24.23;22.93;;;21.50;99.90;;;;;;5032171;28;20492;-66
2021/08/20 09:46:09;;;;;;;25.30;23.90;;;21.20;99.90;;;;;;5032301;28;20452;-66
2021/08/20 09:48:52;;;;;;;24.00;22.60;;;21.10;99.90;;;;;;5032397;28;20449;-66
2021/08/20 09:51:39;;;;;;;22.47;21.20;;;21.00;99.90;;;;;;5036487;28;20480;-65
2021/08/20 09:54:07;;;;;;;23.13;21.50;;;21.00;99.90;;;;;;5052005;28;20444;-65
2021/08/20 09:56:36;;;;;;;21.70;20.60;;;21.00;99.90;;;;;;5051511;28;20448;-64
2021/08/20 09:59:06;;;;;;;21.50;20.43;;;21.20;99.90;;;;;;5051807;28;20852;-64
2021/08/20 10:01:34;;;;;;;21.47;20.37;;;21.80;99.90;;;;;;5044553;28;20523;-64
2021/08/20 10:04:02;;;;;;;20.20;19.30;;;22.30;99.90;;;;;;5031798;28;20449;-64
2021/08/20 10:06:32;;;;;;;21.37;20.30;;;22.80;99.90;;;;;;5031890;28;20448;-64
2021/08/20 10:09:01;;;;;;;21.10;20.10;;;23.10;99.90;;;;;;5031806;28;20499;-65
2021/08/20 10:11:29;;;;;;;22.00;21.00;;;23.10;99.90;;;;;;5031612;28;20534;-65
2021/08/20 10:14:01;;;;;;;20.53;19.33;;;22.70;99.90;;;;;;5031850;28;20514;-65
2021/08/20 10:16:30;;;;;;;20.43;19.33;;;22.60;99.90;;;;;;5031914;28;20455;-64
2021/08/20 10:18:58;;;;;;;18.90;18.20;;;22.60;99.90;;;;;;5031647;28;20499;-65
2021/08/20 10:21:25;;;;;;;18.23;17.53;;;22.90;99.90;;;;;;5036156;28;20444;-64
2021/08/20 10:23:52;;;;;;;18.43;17.73;;;23.30;99.90;;;;;;5051343;28;20445;-65
2021/08/20 10:26:20;;;;;;;18.50;17.80;;;24.00;99.90;;;;;;5051436;28;20910;-65
2021/08/20 10:28:48;;;;;;;18.37;17.77;;;24.10;99.90;;;;;;5051531;28;20467;-65
2021/08/20 10:31:17;;;;;;;18.23;17.63;;;24.00;99.90;;;;;;5047122;28;20488;-65
2021/08/20 10:33:44;;;;;;;18.60;18.00;;;24.50;99.90;;;;;;5031452;28;20441;-64
2021/08/20 10:36:10;;;;;;;18.87;18.17;;;25.20;99.90;;;;;;5031344;28;20931;-64
2021/08/20 10:38:43;;;;;;;18.43;17.77;;;25.60;99.90;;;;;;5031299;28;20449;-64
2021/08/20 10:41:13;;;;;;;19.87;19.07;;;25.80;99.90;;;;;;5031751;28;20449;-63
2021/08/20 10:44:00;;;;;;;18.73;17.93;;;25.20;99.90;;;;;;5046451;28;20448;-63
2021/08/20 10:47:09;;;;;;;19.27;18.53;;;24.60;99.90;;;;;;5038073;28;20945;-64
2021/08/20 10:49:50;;;;;;;18.83;18.10;;;24.60;99.90;;;;;;5042594;28;20443;-62
2021/08/20 10:52:31;;;;;;;19.03;18.33;;;24.90;99.90;;;;;;5050617;28;20484;-62
2021/08/20 10:55:28;;;;;;;19.07;18.20;;;25.30;99.90;;;;;;5051021;28;20459;-65
2021/08/20 10:58:05;;;;;;;19.00;18.30;;;26.00;99.90;;;;;;5047767;28;20459;-63
2021/08/20 11:00:35;;;;;;;19.33;18.63;;;25.80;99.90;;;;;;5051184;28;20436;-64
2021/08/20 11:03:03;;;;;;;18.73;18.10;;;26.00;99.90;;;;;;5050672;28;20516;-62
2021/08/20 11:05:49;;;;;;;20.23;19.23;;;26.10;99.90;;;;;;5051160;28;20459;-64
2021/08/20 11:08:43;;;;;;;20.07;19.37;;;25.60;99.90;;;;;;5043079;28;20497;-63
2021/08/20 11:11:48;;;;;;;21.70;20.90;;;25.10;99.90;;;;;;5054730;28;20475;-63
2021/08/20 11:14:25;;;;;;;20.30;19.60;;;25.70;99.90;;;;;;5052250;28;20860;-62
2021/08/20 11:16:51;;;;;;;20.20;19.50;;;26.00;99.90;;;;;;5051276;28;20441;-62
2021/08/20 11:20:00;;;;;;;20.50;19.77;;;26.10;99.90;;;;;;5034798;28;20441;-62
2021/08/20 11:22:31;;;;;;;20.13;19.53;;;26.10;99.90;;;;;;5034699;28;20475;-63
2021/08/20 11:25:24;;;;;;;20.20;19.50;;;26.40;99.90;;;;;;5036370;28;20502;-64
2021/08/20 11:28:03;;;;;;;21.47;20.70;;;27.20;99.90;;;;;;5054739;28;20444;-64
2021/08/20 11:30:32;;;;;;;21.10;20.40;;;26.90;99.90;;;;;;5054740;28;20447;-65
2021/08/20 11:33:23;;;;;;;21.97;21.27;;;27.50;99.20;;;;;;5054282;28;20888;-65
2021/08/20 11:35:52;;;;;;;22.67;21.87;;;28.90;97.50;;;;;;5031081;28;20471;-64
2021/08/20 11:38:29;;;;;;;22.73;21.93;;;29.70;92.40;;;;;;5034612;28;20448;-65
2021/08/20 11:41:02;;;;;;;22.80;21.97;;;29.60;90.30;;;;;;5034498;28;20452;-66
2021/08/20 11:43:29;;;;;;;24.07;23.17;;;32.20;83.20;;;;;;5034461;28;20471;-64
2021/08/20 11:46:05;;;;;;;23.50;22.60;;;33.60;65.60;;;;;;5042751;28;20447;-64
2021/08/20 11:48:40;;;;;;;23.23;22.43;;;34.20;58.70;;;;;;5054316;28;20450;-64
2021/08/20 11:51:08;;;;;;;24.20;23.30;;;33.70;56.90;;;;;;5053928;28;20925;-63
2021/08/20 11:53:37;;;;;;;23.20;22.40;;;32.90;57.50;;;;;;5035772;28;20464;-64
2021/08/20 11:56:12;;;;;;;23.57;22.60;;;31.90;58.20;;;;;;5034268;28;20448;-63
2021/08/20 11:58:39;;;;;;;23.60;22.80;;;31.20;60.30;;;;;;5034248;28;20455;-64
2021/08/20 12:01:06;;;;;;;22.87;22.07;;;30.50;62.40;;;;;;5034140;28;20453;-63
2021/08/20 12:03:35;;;;;;;23.80;22.90;;;30.30;64.60;;;;;;5033685;28;20826;-63
2021/08/20 12:06:09;;;;;;;22.87;21.97;;;30.50;67.70;;;;;;5034117;28;20444;-64
2021/08/20 12:08:37;;;;;;;22.60;21.80;;;30.60;65.20;;;;;;5033974;28;20437;-64
2021/08/20 12:11:05;;;;;;;23.20;22.30;;;30.40;64.40;;;;;;5033686;28;20440;-65
2021/08/20 12:13:32;;;;;;;22.97;22.17;;;30.90;63.40;;;;;;5034016;28;20970;-64
2021/08/20 12:15:59;;;;;;;23.60;22.77;;;33.30;59.80;;;;;;5033870;28;20448;-63
2021/08/20 12:18:27;;;;;;;24.33;23.40;;;33.10;56.50;;;;;;5033336;28;20930;-64
2021/08/20 12:20:55;;;;;;;23.20;22.40;;;32.00;56.20;;;;;;5033795;28;20444;-64
2021/08/20 12:23:22;;;;;;;23.00;22.20;;;31.30;57.40;;;;;;5033475;28;20509;-64
2021/08/20 12:25:51;;;;;;;22.13;21.33;;;30.90;59.50;;;;;;5033872;28;20451;-63
2021/08/20 12:28:19;;;;;;;24.07;23.17;;;30.10;60.50;;;;;;5033685;28;20440;-65
2021/08/20 12:30:48;;;;;;;23.07;22.27;;;29.40;62.60;;;;;;5033591;28;20923;-64
2021/08/20 12:33:15;;;;;;;22.90;22.10;;;29.00;65.70;;;;;;5033298;28;20484;-63
2021/08/20 12:35:50;;;;;;;23.30;22.50;;;28.50;70.40;;;;;;5033464;28;20449;-64
2021/08/20 12:38:19;;;;;;;23.10;22.30;;;28.50;69.90;;;;;;5033618;28;20440;-63